Time;durP1;ratioP1;P1;durP2;ratioP2;P2;SDS_P1;SDS_P2;PMS_P1;PMS_P2;Temp;Humidity;BMP_temperature;BMP_pressure;BME280_temperature;BME280_humidity;BME280_pressure;Samples;Min_cycle;Max_cycle;Signal;HPM_P1;HPM_P2
2023/06/29 00:00:57;;;;;;;13.00;7.97;;;;;;;;;;6180181;23;20009;-77
2023/06/29 00:03:27;;;;;;;14.15;8.40;;;;;;;;;;6154800;23;20614;-77
2023/06/29 00:05:55;;;;;;;14.57;8.15;;;;;;;;;;6154200;23;20013;-77
2023/06/29 00:08:26;;;;;;;13.13;8.48;;;;;;;;;;6154946;23;20005;-77
2023/06/29 00:10:53;;;;;;;12.85;7.78;;;;;;;;;;6180443;23;20085;-77
2023/06/29 00:13:19;;;;;;;12.52;8.25;;;;;;;;;;6154685;23;20017;-77
2023/06/29 00:15:46;;;;;;;12.65;8.05;;;;;;;;;;6153660;23;20009;-77
2023/06/29 00:18:17;;;;;;;13.93;7.80;;;;;;;;;;6154827;23;20342;-77
2023/06/29 00:20:43;;;;;;;12.38;7.85;;;;;;;;;;6180309;23;20001;-77
2023/06/29 00:23:09;;;;;;;12.77;7.20;;;;;;;;;;6154239;23;20013;-77
2023/06/29 00:25:44;;;;;;;15.73;7.07;;;;;;;;;;6153831;23;20013;-77
2023/06/29 00:28:10;;;;;;;12.75;7.45;;;;;;;;;;6181243;23;20016;-77
2023/06/29 00:30:36;;;;;;;13.13;7.75;;;;;;;;;;6180922;23;20056;-77
2023/06/29 00:33:02;;;;;;;13.52;7.35;;;;;;;;;;6153891;23;20395;-77
2023/06/29 00:35:29;;;;;;;13.52;8.18;;;;;;;;;;6179848;23;20808;-77
2023/06/29 00:37:55;;;;;;;11.75;7.45;;;;;;;;;;6180731;23;20007;-77
2023/06/29 00:40:21;;;;;;;13.68;8.10;;;;;;;;;;6154094;23;20020;-77
2023/06/29 00:42:48;;;;;;;13.88;8.15;;;;;;;;;;6153722;23;20095;-77
2023/06/29 00:45:14;;;;;;;12.48;8.43;;;;;;;;;;6154383;23;20020;-77
2023/06/29 00:47:40;;;;;;;13.50;8.50;;;;;;;;;;6180241;23;20041;-77
2023/06/29 00:50:07;;;;;;;13.90;8.40;;;;;;;;;;6154158;23;20019;-77
2023/06/29 00:52:33;;;;;;;13.57;8.02;;;;;;;;;;6153497;23;20373;-77
2023/06/29 00:54:59;;;;;;;15.15;9.07;;;;;;;;;;6180496;23;20005;-77
2023/06/29 00:57:25;;;;;;;15.50;7.90;;;;;;;;;;6182356;23;20055;-77
2023/06/29 00:59:52;;;;;;;15.70;8.23;;;;;;;;;;6182785;23;20005;-77
2023/06/29 01:02:18;;;;;;;15.40;8.95;;;;;;;;;;6155714;23;20020;-77
2023/06/29 01:04:48;;;;;;;14.95;7.88;;;;;;;;;;6156178;23;20661;-77
2023/06/29 01:07:19;;;;;;;16.17;9.20;;;;;;;;;;6155531;23;20017;-77
2023/06/29 01:09:46;;;;;;;13.70;8.57;;;;;;;;;;6183355;23;20012;-77
2023/06/29 01:12:15;;;;;;;17.40;10.23;;;;;;;;;;6155965;23;20044;-77
2023/06/29 01:14:42;;;;;;;13.82;7.97;;;;;;;;;;6156622;23;20013;-77
2023/06/29 01:17:11;;;;;;;16.95;8.90;;;;;;;;;;6183074;23;20009;-77
2023/06/29 01:19:48;;;;;;;16.25;8.82;;;;;;;;;;6183243;23;20005;-77
2023/06/29 01:22:26;;;;;;;15.50;8.30;;;;;;;;;;6155782;23;20017;-77
2023/06/29 01:24:55;;;;;;;15.40;8.00;;;;;;;;;;6156027;23;20013;-77
2023/06/29 01:27:21;;;;;;;16.23;8.48;;;;;;;;;;6155562;23;20088;-77
2023/06/29 01:30:11;;;;;;;16.40;7.93;;;;;;;;;;6156505;23;20647;-77
2023/06/29 01:32:37;;;;;;;16.10;8.70;;;;;;;;;;6182275;23;20013;-77
2023/06/29 01:35:14;;;;;;;14.38;8.48;;;;;;;;;;6182385;23;20088;-77
2023/06/29 01:37:58;;;;;;;14.52;8.38;;;;;;;;;;6155466;23;20017;-77
2023/06/29 01:40:35;;;;;;;14.13;7.85;;;;;;;;;;6156094;23;20455;-77
2023/06/29 01:43:01;;;;;;;13.05;7.75;;;;;;;;;;6154670;23;20024;-77
2023/06/29 01:45:30;;;;;;;15.95;8.70;;;;;;;;;;6156097;23;20488;-77
2023/06/29 01:48:04;;;;;;;12.57;7.55;;;;;;;;;;6155281;23;20016;-77
2023/06/29 01:50:33;;;;;;;13.23;7.78;;;;;;;;;;6155080;23;20115;-77
2023/06/29 01:53:02;;;;;;;13.63;7.82;;;;;;;;;;6155411;23;20492;-77
2023/06/29 01:55:28;;;;;;;11.90;7.45;;;;;;;;;;6155706;23;20013;-77
2023/06/29 01:57:54;;;;;;;12.98;7.03;;;;;;;;;;6155629;23;20051;-77
2023/06/29 02:00:27;;;;;;;15.50;8.02;;;;;;;;;;6156967;23;20009;-77
2023/06/29 02:03:02;;;;;;;16.33;7.63;;;;;;;;;;6155669;23;20040;-77
2023/06/29 02:05:28;;;;;;;14.90;7.90;;;;;;;;;;6156614;23;20421;-77
2023/06/29 02:07:54;;;;;;;12.00;7.90;;;;;;;;;;6181266;23;20089;-78
2023/06/29 02:10:21;;;;;;;14.05;8.30;;;;;;;;;;6156262;23;20027;-77
2023/06/29 02:12:47;;;;;;;14.80;8.00;;;;;;;;;;6153941;23;20013;-77
2023/06/29 02:15:28;;;;;;;15.68;8.13;;;;;;;;;;6155839;23;20019;-77
2023/06/29 02:17:54;;;;;;;15.60;7.83;;;;;;;;;;6155432;23;20012;-77
2023/06/29 02:20:23;;;;;;;16.95;8.32;;;;;;;;;;6182156;23;20005;-78
2023/06/29 02:22:50;;;;;;;14.35;8.10;;;;;;;;;;6181609;23;20024;-77
2023/06/29 02:25:17;;;;;;;15.75;8.20;;;;;;;;;;6155518;23;20011;-77
2023/06/29 02:27:43;;;;;;;13.30;7.35;;;;;;;;;;6155126;23;20100;-77
2023/06/29 02:30:09;;;;;;;16.13;7.60;;;;;;;;;;6155764;23;20388;-77
2023/06/29 02:32:35;;;;;;;15.35;7.68;;;;;;;;;;6155246;23;20017;-77
2023/06/29 02:35:01;;;;;;;15.20;7.60;;;;;;;;;;6182030;23;20690;-76
2023/06/29 02:37:27;;;;;;;14.15;8.65;;;;;;;;;;6180922;23;20045;-77
2023/06/29 02:39:53;;;;;;;16.08;8.30;;;;;;;;;;6181930;23;20005;-77
2023/06/29 02:42:19;;;;;;;12.95;7.13;;;;;;;;;;6154970;23;20020;-77
2023/06/29 02:44:45;;;;;;;13.32;7.68;;;;;;;;;;6154829;23;20112;-77
2023/06/29 02:47:11;;;;;;;12.02;7.63;;;;;;;;;;6155066;23;20045;-77
2023/06/29 02:49:37;;;;;;;12.95;7.57;;;;;;;;;;6155148;23;20013;-77
2023/06/29 03:11:02;;;;;;;;;;;;;;;;;;;;;
2023/06/29 03:25:56;;;;;;;13.73;7.32;;;;;;;;;;5975564;24;20051;-78
2023/06/29 03:36:45;;;;;;;12.90;6.90;;;;;;;;;;6144955;23;20053;-77
2023/06/29 03:42:34;;;;;;;10.90;6.88;;;;;;;;;;6060731;23;20014;-77
2023/06/29 03:45:15;;;;;;;14.00;7.97;;;;;;;;;;6035648;23;20090;-77
2023/06/29 03:48:01;;;;;;;12.63;7.27;;;;;;;;;;6105180;23;20104;-77
2023/06/29 03:50:46;;;;;;;13.27;7.40;;;;;;;;;;6123997;23;20397;-77
2023/06/29 03:53:25;;;;;;;16.33;7.85;;;;;;;;;;6121663;23;20394;-77
2023/06/29 03:56:10;;;;;;;13.48;8.00;;;;;;;;;;6125063;23;20029;-77
2023/06/29 03:58:49;;;;;;;15.85;8.13;;;;;;;;;;6124640;23;20017;-77
2023/06/29 04:02:45;;;;;;;;;;;;;;;;;;;;;
2023/06/29 04:14:29;;;;;;;14.55;6.90;;;;;;;;;;6059738;23;20022;-77
2023/06/29 04:17:10;;;;;;;14.00;7.80;;;;;;;;;;6036175;23;20014;-77
2023/06/29 04:19:45;;;;;;;20.05;8.75;;;;;;;;;;6137182;23;20124;-77
2023/06/29 04:22:11;;;;;;;15.85;9.30;;;;;;;;;;6179401;23;20005;-77
2023/06/29 04:24:42;;;;;;;17.02;8.45;;;;;;;;;;6178890;23;20016;-77
2023/06/29 04:27:11;;;;;;;14.95;8.80;;;;;;;;;;6180098;23;20009;-77
2023/06/29 04:29:55;;;;;;;18.13;8.57;;;;;;;;;;6180214;23;20013;-77
2023/06/29 04:32:51;;;;;;;;;;;;;;;;;;;;;
2023/06/29 04:35:43;;;;;;;15.50;9.35;;;;;;;;;;6126447;23;20043;-77
2023/06/29 04:38:36;;;;;;;18.03;9.07;;;;;;;;;;6175554;23;20017;-77
2023/06/29 04:41:17;;;;;;;14.98;9.18;;;;;;;;;;6162877;23;20029;-77
2023/06/29 04:44:03;;;;;;;16.17;7.57;;;;;;;;;;6179526;23;20020;-77
2023/06/29 04:49:39;;;;;;;18.08;8.73;;;;;;;;;;6180773;23;20021;-77
2023/06/29 05:04:49;;;;;;;;;;;;;;;;;;;;;
2023/06/29 05:19:13;;;;;;;15.68;8.48;;;;;;;;;;6206710;22;20035;-77
2023/06/29 05:34:56;;;;;;;;;;;;;;;;;;;;;
2023/06/29 05:37:33;;;;;;;;;;;;;;;;;;;;;
2023/06/29 17:38:35;;;;;;;29.40;19.90;;;;;;;;;;6185304;23;20035;-77
2023/06/29 17:47:13;;;;;;;28.60;17.20;;;;;;;;;;6181251;23;20067;-77
2023/06/29 17:49:48;;;;;;;25.92;19.33;;;;;;;;;;6154868;23;20020;-77
2023/06/29 17:52:17;;;;;;;31.90;19.15;;;;;;;;;;6182002;23;20013;-77
2023/06/29 17:54:43;;;;;;;29.02;18.30;;;;;;;;;;6152784;23;20012;-76
2023/06/29 17:57:09;;;;;;;28.30;19.30;;;;;;;;;;6125394;23;20160;-77
2023/06/29 17:59:35;;;;;;;25.02;18.30;;;;;;;;;;6126295;23;20022;-76
2023/06/29 18:02:01;;;;;;;29.98;19.42;;;;;;;;;;6125893;23;20067;-76
2023/06/29 18:04:31;;;;;;;31.40;18.77;;;;;;;;;;6125616;23;20013;-77
2023/06/29 18:25:17;;;;;;;28.50;19.38;;;;;;;;;;6210958;22;20043;-78
2023/06/29 18:28:11;;;;;;;29.10;20.90;;;;;;;;;;6184973;23;20032;-78
2023/06/29 18:34:01;;;;;;;31.02;21.50;;;;;;;;;;6211783;23;20024;-78
2023/06/29 18:43:15;;;;;;;32.67;22.23;;;;;;;;;;6142919;22;20099;-78
2023/06/29 18:45:41;;;;;;;34.08;23.48;;;;;;;;;;6181878;23;20111;-78
2023/06/29 18:48:13;;;;;;;29.50;23.05;;;;;;;;;;6155532;23;20472;-79
2023/06/29 19:27:48;;;;;;;34.92;23.08;;;;;;;;;;6151181;23;20036;-78
2023/06/29 19:42:08;;;;;;;32.13;21.83;;;;;;;;;;6180449;23;20009;-78
2023/06/29 19:44:37;;;;;;;30.63;22.40;;;;;;;;;;6172751;23;20017;-78
2023/06/29 19:50:35;;;;;;;;;;;;;;;;;;;;;
2023/06/29 19:53:15;;;;;;;31.63;22.88;;;;;;;;;;6181116;23;20100;-78
2023/06/29 19:56:09;;;;;;;32.22;22.88;;;;;;;;;;6153993;23;20040;-78
2023/06/29 19:58:38;;;;;;;32.38;24.35;;;;;;;;;;6154248;23;20112;-78
2023/06/29 20:01:16;;;;;;;;;;;;;;;;;;;;;
2023/06/29 20:07:26;;;;;;;33.75;24.40;;;;;;;;;;6027849;23;20029;-78
2023/06/29 20:10:18;;;;;;;36.70;25.58;;;;;;;;;;5945634;24;20016;-78
2023/06/29 20:13:01;;;;;;;34.08;23.10;;;;;;;;;;5946514;24;20016;-78
2023/06/29 20:15:37;;;;;;;31.10;23.08;;;;;;;;;;6034640;23;20023;-77
2023/06/29 20:18:12;;;;;;;38.15;24.02;;;;;;;;;;6149487;23;20416;-78
2023/06/29 20:20:55;;;;;;;36.67;23.70;;;;;;;;;;6180134;23;20008;-78
2023/06/29 20:23:45;;;;;;;32.80;23.05;;;;;;;;;;6154347;23;20017;-78
2023/06/29 20:26:32;;;;;;;;;;;;;;;;;;;;;
2023/06/29 20:29:35;;;;;;;;;;;;;;;;;;;;;
2023/06/29 20:37:38;;;;;;;31.73;22.73;;;;;;;;;;6179683;23;20052;-78
2023/06/29 20:40:25;;;;;;;;;;;;;;;;;;;;;
2023/06/29 20:43:05;;;;;;;30.20;21.83;;;;;;;;;;6178669;23;19997;-78
2023/06/29 20:45:35;;;;;;;31.88;20.88;;;;;;;;;;6152502;23;20067;-78
2023/06/29 20:48:06;;;;;;;31.45;22.42;;;;;;;;;;6151439;23;20025;-78
2023/06/29 20:50:53;;;;;;;29.90;20.55;;;;;;;;;;6180783;23;20102;-78
2023/06/29 20:56:37;;;;;;;32.28;22.80;;;;;;;;;;6177276;23;20031;-77
2023/06/29 21:02:40;;;;;;;34.15;21.70;;;;;;;;;;6031258;23;20558;-78
2023/06/29 21:18:23;;;;;;;30.77;21.52;;;;;;;;;;6137459;23;20333;-78
2023/06/29 21:24:33;;;;;;;29.25;20.10;;;;;;;;;;6118801;23;20044;-78
2023/06/29 21:27:04;;;;;;;31.08;19.92;;;;;;;;;;6002132;23;20106;-77
2023/06/29 21:29:37;;;;;;;28.38;20.10;;;;;;;;;;6117746;23;20024;-77
2023/06/29 21:32:34;;;;;;;28.98;20.05;;;;;;;;;;6118370;23;20070;-78
2023/06/29 21:35:10;;;;;;;39.33;21.23;;;;;;;;;;6117207;23;20111;-77
2023/06/29 21:37:41;;;;;;;27.08;19.83;;;;;;;;;;6119151;23;20112;-77
2023/06/29 21:40:11;;;;;;;35.50;24.13;;;;;;;;;;6118144;23;20149;-77
2023/06/29 21:45:50;;;;;;;34.47;22.55;;;;;;;;;;6119144;23;20009;-78
2023/06/29 21:48:23;;;;;;;32.60;22.77;;;;;;;;;;6119257;23;20018;-78
2023/06/29 21:50:49;;;;;;;33.05;21.73;;;;;;;;;;6118293;23;20009;-78
2023/06/29 21:53:15;;;;;;;33.80;22.20;;;;;;;;;;6118996;23;20026;-78
2023/06/29 21:55:42;;;;;;;31.48;21.85;;;;;;;;;;6123633;23;20042;-77
2023/06/29 21:58:10;;;;;;;32.58;21.42;;;;;;;;;;6125173;23;20476;-77
2023/06/29 22:00:41;;;;;;;31.33;23.25;;;;;;;;;;6125464;23;20016;-78
2023/06/29 22:03:29;;;;;;;43.20;21.85;;;;;;;;;;6151798;23;20100;-77
2023/06/29 22:05:55;;;;;;;47.53;23.67;;;;;;;;;;6151933;23;20013;-77
2023/06/29 22:08:21;;;;;;;43.00;25.88;;;;;;;;;;6152663;23;20068;-76
2023/06/29 22:10:47;;;;;;;33.92;25.17;;;;;;;;;;6151644;23;20020;-77
2023/06/29 22:13:13;;;;;;;36.10;24.33;;;;;;;;;;6152449;23;20013;-77
2023/06/29 22:15:44;;;;;;;32.58;22.38;;;;;;;;;;6125394;23;20022;-78
2023/06/29 22:18:10;;;;;;;40.25;25.55;;;;;;;;;;6181903;23;20013;-77
2023/06/29 22:20:36;;;;;;;31.88;22.38;;;;;;;;;;6182006;23;20132;-77
2023/06/29 22:23:02;;;;;;;38.10;24.75;;;;;;;;;;6154592;23;20100;-77
2023/06/29 22:25:28;;;;;;;35.25;23.30;;;;;;;;;;6181627;23;20005;-77
2023/06/29 22:27:54;;;;;;;34.03;23.50;;;;;;;;;;6182079;23;20013;-77
2023/06/29 22:30:20;;;;;;;31.65;21.75;;;;;;;;;;6181523;23;20421;-77
2023/06/29 22:32:46;;;;;;;29.42;19.80;;;;;;;;;;6155581;23;20020;-78
2023/06/29 22:35:12;;;;;;;31.55;21.17;;;;;;;;;;6181582;23;20013;-77
2023/06/29 22:37:38;;;;;;;32.67;21.52;;;;;;;;;;6182049;23;20017;-77
2023/06/29 22:40:04;;;;;;;37.67;25.27;;;;;;;;;;6181704;23;20005;-77
2023/06/29 22:42:30;;;;;;;35.80;25.00;;;;;;;;;;6155282;23;20024;-77
2023/06/29 22:44:56;;;;;;;36.85;25.42;;;;;;;;;;6181502;23;20005;-77
2023/06/29 22:47:23;;;;;;;36.80;23.27;;;;;;;;;;6181904;23;20017;-77
2023/06/29 22:49:50;;;;;;;33.67;23.35;;;;;;;;;;6181186;23;20052;-77
2023/06/29 22:52:20;;;;;;;33.13;23.75;;;;;;;;;;6155124;23;20027;-78
2023/06/29 22:54:46;;;;;;;35.30;23.92;;;;;;;;;;6154684;23;20017;-78
2023/06/29 22:57:12;;;;;;;35.72;24.73;;;;;;;;;;6181905;23;20048;-77
2023/06/29 22:59:38;;;;;;;33.38;23.70;;;;;;;;;;6180852;23;20287;-77
2023/06/29 23:02:04;;;;;;;39.50;24.77;;;;;;;;;;6155024;23;20013;-77
2023/06/29 23:04:30;;;;;;;75.38;32.40;;;;;;;;;;6155139;23;20746;-77
2023/06/29 23:07:00;;;;;;;54.40;30.00;;;;;;;;;;6181615;23;20009;-77
2023/06/29 23:09:27;;;;;;;68.05;31.42;;;;;;;;;;6154853;23;20104;-77
2023/06/29 23:11:53;;;;;;;70.50;29.77;;;;;;;;;;6155077;23;20023;-77
2023/06/29 23:14:19;;;;;;;55.90;30.30;;;;;;;;;;6155250;23;20019;-77
2023/06/29 23:16:47;;;;;;;49.45;28.63;;;;;;;;;;6140619;23;20105;-77
2023/06/29 23:19:13;;;;;;;46.92;26.65;;;;;;;;;;6151836;23;20005;-77
2023/06/29 23:21:39;;;;;;;51.80;30.10;;;;;;;;;;6124963;23;20040;-77
2023/06/29 23:26:41;;;;;;;38.90;25.20;;;;;;;;;;6155214;23;20033;-76
2023/06/29 23:29:07;;;;;;;38.25;22.20;;;;;;;;;;6181122;23;20005;-76
2023/06/29 23:31:34;;;;;;;22.35;15.35;;;;;;;;;;6180659;23;20009;-76
2023/06/29 23:34:03;;;;;;;20.00;12.18;;;;;;;;;;6154268;23;20013;-77
2023/06/29 23:36:30;;;;;;;19.10;11.60;;;;;;;;;;6180554;23;20124;-76
2023/06/29 23:38:58;;;;;;;17.90;11.27;;;;;;;;;;6180526;23;20040;-76
2023/06/29 23:41:28;;;;;;;16.20;10.68;;;;;;;;;;6180364;23;20020;-76
2023/06/29 23:44:02;;;;;;;22.35;11.88;;;;;;;;;;6154456;23;20009;-77
2023/06/29 23:46:28;;;;;;;23.58;14.25;;;;;;;;;;6180734;23;20021;-76
2023/06/29 23:48:55;;;;;;;25.38;15.65;;;;;;;;;;6154719;23;20020;-76
2023/06/29 23:51:21;;;;;;;25.05;13.82;;;;;;;;;;6180921;23;20021;-77
2023/06/29 23:53:52;;;;;;;21.42;13.63;;;;;;;;;;6181046;23;20011;-76
2023/06/29 23:56:18;;;;;;;20.57;12.93;;;;;;;;;;6153353;23;20020;-76
2023/06/29 23:58:44;;;;;;;22.27;15.38;;;;;;;;;;6154562;23;20012;-76
